Laval, Canada
Current Conditions -  °F | °C
As of 4:00 AM on Wednesday 28 Jan 2015 (Local Time) from CYUL Reporting Station
Broken Clouds Broken Clouds  
Wind Chill:   Ceiling: 22000
Heat Index:   Visibility: 15mi
Dew Point: -9°   Wind: 5mph
Humidity: 44%   Direction: 310°NW
Pressure: 30.05"   Gusts: NA
Location:  45.55°N, 73.74°W
Report Text: CYUL 280900Z 31004KT 15SM FEW150 BKN220 M13/M23 A3005 RMK AC2CS5 SLP180
Loading
Personal Weather Stations






























Interactive Weather Map New forecast layout! Learn more

10-Day Weather Forecast

Advertisements
Track Severe Weather on mobile